Accueil
METAR-TAF:

METAR-TAF

Aéroports :

Aéroport de Venise-Marco-Polo

Venise, Italie

latitude: 45-30N, longitude: 012-20E, altitude: 2 m

Observation

Le bulletin a été fait il y a 40 minutes, à 23:50 UTC
Vent 3 kt de ouest, variant entre ouest/sud-ouest et nord-ouest
Température 11°C
Humidité 87%
Pression 1014 hPa
Visibilité 10 km ou plus
pas de nuages en-dessous de 1500 mètres et pas de cumulonimbus.

METAR: LIPZ 232350Z 26003KT 240V320 CAVOK 11/09 Q1014 NOSIG

Heure: 02:30 (00:30 UTC)

Prévision

Le bulletin a été fait il y a 1 heure et 30 minutes, à 23:00 UTC
Prévision valable du 24 à 00 UTC au 25 à 06 UTC
Vent 5 kt de direction variable
Visibilité 10 km ou plus
pas de nuages en-dessous de 1500 mètres et pas de cumulonimbus.
Temporairement
du 25 à 00 UTC au 25 à 05 UTC
Visibilité: 4000 m
brume

TAF: LIPZ 232300Z 2400/2506 VRB05KT CAVOK TEMPO 2500/2505 4000 BR

Observations et prévisions météorologiques de plus de 4000 aéroports (messages METAR et TAF).

Les stations disponibles sont représentées par des disques jaunes et rouges sur la carte.

Passer la souris dessus pour voir le nom de la station.

Cliquer dessus pour voir les observations et prévisions météorologiques.

Pour changer de carte: cliquez sur les boutons verts avec une croix noire pour zoomer, sur le bouton vert avec un tiret pour effectuer un zoom arrière, ou sur les flèches vertes pour les cartes adjacentes.


METAR-TAF: